Time;durP1;ratioP1;P1;durP2;ratioP2;P2;SDS_P1;SDS_P2;PMS_P1;PMS_P2;Temp;Humidity;BMP_temperature;BMP_pressure;BME280_temperature;BME280_humidity;BME280_pressure;Samples;Min_cycle;Max_cycle;Signal;HPM_P1;HPM_P2
2022/08/09 00:01:08;;;;;;;2.10;1.10;;;;;;;;;;5072365;28;20033;-76
2022/08/09 00:03:34;;;;;;;3.00;1.20;;;;;;;;;;5071906;28;20043;-77
2022/08/09 00:06:00;;;;;;;1.38;1.00;;;;;;;;;;5072461;28;20409;-77
2022/08/09 00:08:26;;;;;;;1.92;1.05;;;;;;;;;;5086657;28;20031;-77
2022/08/09 00:10:52;;;;;;;2.03;0.85;;;;;;;;;;5054658;28;20482;-77
2022/08/09 00:13:18;;;;;;;1.60;1.00;;;;;;;;;;5053726;28;20028;-77
2022/08/09 00:15:45;;;;;;;1.77;0.98;;;;;;;;;;5072162;28;20028;-77
2022/08/09 00:18:11;;;;;;;1.83;1.20;;;;;;;;;;5087242;28;20301;-77
2022/08/09 00:20:37;;;;;;;2.60;1.30;;;;;;;;;;5087820;28;20481;-81
2022/08/09 00:23:03;;;;;;;3.42;1.10;;;;;;;;;;5087961;28;20584;-76
2022/08/09 00:25:29;;;;;;;1.55;1.00;;;;;;;;;;5070320;28;20044;-79
2022/08/09 00:27:55;;;;;;;2.60;1.30;;;;;;;;;;5071395;28;20028;-77
2022/08/09 00:30:21;;;;;;;2.35;1.05;;;;;;;;;;5052520;28;20024;-77
2022/08/09 00:32:47;;;;;;;2.33;1.20;;;;;;;;;;5086618;28;20111;-77
2022/08/09 00:35:13;;;;;;;1.50;1.00;;;;;;;;;;5087185;28;20032;-77
2022/08/09 00:37:39;;;;;;;2.25;1.27;;;;;;;;;;5087775;28;20020;-77
2022/08/09 00:40:05;;;;;;;1.48;1.13;;;;;;;;;;5086959;28;20038;-78
2022/08/09 00:42:31;;;;;;;2.95;1.23;;;;;;;;;;5087727;28;20048;-77
2022/08/09 00:44:57;;;;;;;2.53;1.08;;;;;;;;;;5070020;28;20486;-78
2022/08/09 00:47:23;;;;;;;2.05;1.10;;;;;;;;;;5054098;28;20052;-77
2022/08/09 00:49:49;;;;;;;3.13;1.10;;;;;;;;;;5050263;28;20111;-77
2022/08/09 00:52:16;;;;;;;3.15;1.20;;;;;;;;;;5071830;28;20060;-77
2022/08/09 00:54:42;;;;;;;2.03;1.20;;;;;;;;;;5085621;28;20047;-77
2022/08/09 00:57:08;;;;;;;2.83;1.17;;;;;;;;;;5087031;28;20051;-77
2022/08/09 00:59:34;;;;;;;3.63;1.35;;;;;;;;;;5045337;28;20053;-77
2022/08/09 01:02:01;;;;;;;1.38;1.20;;;;;;;;;;5065633;28;20035;-78
2022/08/09 01:04:30;;;;;;;1.27;1.10;;;;;;;;;;5071380;28;20035;-78
2022/08/09 01:06:56;;;;;;;1.65;1.10;;;;;;;;;;5071096;28;20012;-77
2022/08/09 01:09:40;;;;;;;2.53;1.30;;;;;;;;;;5056051;28;20024;-77
2022/08/09 01:12:18;;;;;;;1.80;1.17;;;;;;;;;;5060776;28;20051;-78
2022/08/09 01:14:48;;;;;;;3.28;1.48;;;;;;;;;;5043696;28;20021;-77
2022/08/09 01:17:32;;;;;;;1.92;1.38;;;;;;;;;;5057731;28;20086;-76
2022/08/09 01:20:00;;;;;;;3.30;1.02;;;;;;;;;;5057405;28;20025;-79
2022/08/09 01:22:37;;;;;;;3.58;1.60;;;;;;;;;;5074992;28;20028;-78
2022/08/09 01:25:03;;;;;;;2.20;1.45;;;;;;;;;;5074553;28;20060;-78
2022/08/09 01:27:30;;;;;;;2.08;1.30;;;;;;;;;;5057046;28;20112;-78
2022/08/09 01:29:58;;;;;;;2.30;1.40;;;;;;;;;;5054849;28;20048;-76
2022/08/09 01:32:35;;;;;;;3.45;1.70;;;;;;;;;;5075248;28;20040;-78
2022/08/09 01:35:03;;;;;;;2.20;1.55;;;;;;;;;;5074081;28;20021;-78
2022/08/09 01:37:29;;;;;;;3.47;1.60;;;;;;;;;;5074812;28;20031;-78
2022/08/09 01:39:58;;;;;;;1.83;1.42;;;;;;;;;;5074535;28;20459;-77
2022/08/09 01:42:24;;;;;;;;;;;;;;;;;;5075767;28;20082;-77
2022/08/09 01:44:50;;;;;;;3.10;1.45;;;;;;;;;;5055417;28;20007;-77
2022/08/09 01:47:17;;;;;;;2.88;1.58;;;;;;;;;;5057299;28;20048;-77
2022/08/09 01:49:46;;;;;;;1.45;1.35;;;;;;;;;;5073107;28;20029;-77
2022/08/09 01:52:14;;;;;;;2.92;1.40;;;;;;;;;;5089781;28;20115;-77
2022/08/09 01:54:40;;;;;;;;;;;;;;;;;;5090048;28;20032;-77
2022/08/09 01:57:11;;;;;;;2.08;1.50;;;;;;;;;;5057163;28;19983;-77
2022/08/09 01:59:39;;;;;;;3.70;1.77;;;;;;;;;;5074028;28;20031;-78
2022/08/09 02:02:05;;;;;;;3.10;1.70;;;;;;;;;;5090720;28;20052;-77
2022/08/09 02:04:32;;;;;;;3.50;1.63;;;;;;;;;;5088345;28;20028;-78
2022/08/09 02:07:14;;;;;;;3.45;1.50;;;;;;;;;;5090158;28;20029;-77
2022/08/09 02:09:49;;;;;;;1.63;1.52;;;;;;;;;;5083381;28;20088;-78
2022/08/09 02:12:17;;;;;;;2.05;1.50;;;;;;;;;;5054948;28;20029;-77
2022/08/09 02:14:44;;;;;;;3.67;1.60;;;;;;;;;;5053830;28;20091;-77
2022/08/09 02:17:11;;;;;;;3.08;1.60;;;;;;;;;;5069837;28;20056;-78
2022/08/09 02:19:37;;;;;;;3.47;1.70;;;;;;;;;;5062589;28;20035;-78
2022/08/09 02:22:04;;;;;;;2.97;1.80;;;;;;;;;;5073203;28;20052;-77
2022/08/09 02:24:35;;;;;;;2.13;1.55;;;;;;;;;;5086277;28;20048;-77
2022/08/09 02:27:04;;;;;;;1.90;1.40;;;;;;;;;;5072146;28;20017;-78
2022/08/09 02:29:33;;;;;;;4.45;1.70;;;;;;;;;;5056252;28;20101;-77
2022/08/09 02:32:01;;;;;;;2.95;1.70;;;;;;;;;;5089790;28;20588;-76
2022/08/09 02:34:29;;;;;;;3.00;1.80;;;;;;;;;;5052320;28;20021;-82
2022/08/09 02:36:58;;;;;;;3.28;1.75;;;;;;;;;;5074208;28;20063;-80
2022/08/09 02:39:27;;;;;;;1.73;1.60;;;;;;;;;;5050912;28;20021;-77
2022/08/09 02:41:58;;;;;;;2.78;1.65;;;;;;;;;;5036228;28;20033;-80
2022/08/09 02:44:26;;;;;;;3.22;1.60;;;;;;;;;;5054030;28;20025;-79
2022/08/09 02:46:53;;;;;;;4.65;2.00;;;;;;;;;;5073392;28;20020;-78
2022/08/09 02:49:19;;;;;;;2.65;1.60;;;;;;;;;;5054818;28;20078;-78
2022/08/09 02:51:56;;;;;;;3.15;1.80;;;;;;;;;;5054648;28;20267;-79
2022/08/09 02:54:23;;;;;;;3.42;1.73;;;;;;;;;;5055143;28;20032;-78
2022/08/09 02:56:50;;;;;;;3.08;2.10;;;;;;;;;;5089463;28;20543;-78
2022/08/09 02:59:18;;;;;;;3.30;2.00;;;;;;;;;;5072962;28;20074;-78
2022/08/09 03:01:44;;;;;;;2.47;1.97;;;;;;;;;;5077412;28;20025;-77
2022/08/09 03:04:11;;;;;;;2.55;1.77;;;;;;;;;;5056630;28;20110;-77
2022/08/09 03:06:37;;;;;;;2.50;1.80;;;;;;;;;;5068888;28;20482;-79
2022/08/09 03:09:03;;;;;;;2.95;1.60;;;;;;;;;;5064812;28;20160;-77
2022/08/09 03:11:30;;;;;;;2.67;1.90;;;;;;;;;;5055650;28;20025;-78
2022/08/09 03:13:57;;;;;;;3.47;1.60;;;;;;;;;;5053137;28;20035;-80
2022/08/09 03:16:23;;;;;;;3.72;1.80;;;;;;;;;;5061960;28;20103;-80
2022/08/09 03:18:50;;;;;;;2.42;1.73;;;;;;;;;;5073206;28;20385;-77
2022/08/09 03:21:17;;;;;;;2.58;1.88;;;;;;;;;;5055507;28;20024;-79
2022/08/09 03:23:45;;;;;;;3.50;2.03;;;;;;;;;;5054983;28;20048;-76
2022/08/09 03:26:12;;;;;;;1.83;1.70;;;;;;;;;;5036443;28;20107;-76
2022/08/09 03:28:38;;;;;;;2.78;1.90;;;;;;;;;;5034434;28;20483;-77
2022/08/09 03:31:04;;;;;;;2.50;1.70;;;;;;;;;;5071874;28;20409;-77
2022/08/09 03:33:31;;;;;;;3.88;1.88;;;;;;;;;;5062029;28;20282;-77
2022/08/09 03:35:57;;;;;;;2.72;2.10;;;;;;;;;;5052785;28;20563;-77
2022/08/09 03:38:23;;;;;;;3.17;1.90;;;;;;;;;;5052805;28;20048;-78
2022/08/09 03:40:49;;;;;;;4.90;2.70;;;;;;;;;;5052480;28;20041;-78
2022/08/09 03:43:15;;;;;;;3.28;2.10;;;;;;;;;;5052938;28;20025;-77
2022/08/09 03:45:41;;;;;;;3.33;1.80;;;;;;;;;;5068422;28;20029;-76
2022/08/09 03:48:07;;;;;;;2.70;1.85;;;;;;;;;;5088134;28;20107;-78
2022/08/09 03:50:34;;;;;;;2.50;1.92;;;;;;;;;;5070532;28;20394;-77
2022/08/09 03:53:01;;;;;;;2.65;2.10;;;;;;;;;;5087936;28;20428;-80
2022/08/09 03:55:27;;;;;;;2.60;1.80;;;;;;;;;;5071443;28;20028;-78
2022/08/09 03:57:55;;;;;;;3.05;1.90;;;;;;;;;;5072068;28;20031;-77
2022/08/09 04:00:21;;;;;;;3.53;2.00;;;;;;;;;;5087731;28;20050;-78
2022/08/09 04:02:47;;;;;;;2.17;1.75;;;;;;;;;;5088298;28;20437;-78
2022/08/09 04:05:13;;;;;;;3.78;1.80;;;;;;;;;;5071092;28;20478;-77
2022/08/09 04:07:39;;;;;;;2.65;1.83;;;;;;;;;;5054589;28;20429;-77
2022/08/09 04:10:06;;;;;;;3.38;2.35;;;;;;;;;;5070278;28;20033;-77
2022/08/09 04:12:45;;;;;;;2.50;1.98;;;;;;;;;;5087364;28;20509;-80
2022/08/09 04:15:12;;;;;;;2.90;1.90;;;;;;;;;;5086932;28;20020;-77
2022/08/09 04:17:39;;;;;;;2.30;1.90;;;;;;;;;;5072343;28;20024;-77
2022/08/09 04:20:06;;;;;;;1.98;1.77;;;;;;;;;;5071431;28;20017;-78
2022/08/09 04:22:32;;;;;;;3.83;1.90;;;;;;;;;;5072423;28;20029;-77
2022/08/09 04:24:58;;;;;;;2.40;1.88;;;;;;;;;;5085855;28;20040;-78
2022/08/09 04:27:24;;;;;;;4.15;2.08;;;;;;;;;;5052737;28;20112;-77
2022/08/09 04:29:50;;;;;;;5.28;2.38;;;;;;;;;;5087564;28;20028;-77
2022/08/09 04:32:16;;;;;;;3.40;1.98;;;;;;;;;;5072039;28;20043;-77
2022/08/09 04:34:42;;;;;;;1.95;1.75;;;;;;;;;;5072235;28;20081;-77
2022/08/09 04:37:08;;;;;;;3.42;2.10;;;;;;;;;;5054086;28;20033;-77
2022/08/09 04:39:34;;;;;;;3.40;1.77;;;;;;;;;;5071928;28;20021;-77
2022/08/09 04:42:00;;;;;;;4.18;2.00;;;;;;;;;;5072107;28;20493;-78
2022/08/09 04:44:26;;;;;;;3.80;2.10;;;;;;;;;;5053453;28;20158;-77
2022/08/09 04:46:52;;;;;;;3.65;2.08;;;;;;;;;;5048454;28;20104;-77
2022/08/09 04:49:18;;;;;;;2.95;1.98;;;;;;;;;;5045307;28;20098;-78
2022/08/09 04:51:44;;;;;;;4.93;2.08;;;;;;;;;;5071663;28;20028;-77
2022/08/09 04:54:10;;;;;;;2.97;2.38;;;;;;;;;;5070696;28;20035;-77
2022/08/09 04:56:36;;;;;;;2.90;1.90;;;;;;;;;;5052072;28;20111;-77
2022/08/09 04:59:02;;;;;;;2.78;1.98;;;;;;;;;;5053938;28;20119;-77
2022/08/09 05:01:28;;;;;;;3.67;2.00;;;;;;;;;;5052333;28;20441;-77
2022/08/09 05:03:54;;;;;;;3.33;2.00;;;;;;;;;;5087568;28;20150;-77
2022/08/09 05:06:20;;;;;;;3.28;2.22;;;;;;;;;;5086321;28;20012;-78
2022/08/09 05:08:46;;;;;;;2.78;1.75;;;;;;;;;;5087577;28;20029;-78
2022/08/09 05:11:12;;;;;;;4.00;2.30;;;;;;;;;;5070400;28;20032;-77
2022/08/09 05:13:39;;;;;;;3.97;2.17;;;;;;;;;;5053660;28;20025;-77
2022/08/09 05:16:06;;;;;;;2.92;2.25;;;;;;;;;;5052828;28;20111;-77
2022/08/09 05:18:32;;;;;;;3.60;1.90;;;;;;;;;;5049918;28;20027;-78
2022/08/09 05:20:59;;;;;;;3.05;2.15;;;;;;;;;;5050976;28;20029;-78
2022/08/09 05:23:25;;;;;;;3.92;1.90;;;;;;;;;;5068332;28;20028;-77
2022/08/09 05:25:51;;;;;;;2.85;2.08;;;;;;;;;;5075974;28;20041;-79
2022/08/09 05:28:17;;;;;;;3.65;2.53;;;;;;;;;;5066197;28;20021;-78
2022/08/09 05:30:43;;;;;;;3.35;2.00;;;;;;;;;;5077411;28;20115;-78
2022/08/09 05:33:09;;;;;;;4.32;2.30;;;;;;;;;;5086019;28;20029;-77
2022/08/09 05:35:35;;;;;;;2.70;2.17;;;;;;;;;;5085788;28;20124;-77
2022/08/09 05:38:01;;;;;;;2.63;2.10;;;;;;;;;;5087383;28;20052;-79
2022/08/09 05:40:27;;;;;;;2.05;1.85;;;;;;;;;;5070669;28;20436;-76
2022/08/09 05:42:56;;;;;;;3.45;2.08;;;;;;;;;;5051931;28;20048;-76
2022/08/09 05:45:23;;;;;;;3.10;2.05;;;;;;;;;;5075287;28;20164;-82
2022/08/09 05:47:49;;;;;;;4.18;2.10;;;;;;;;;;5086364;28;20116;-77
2022/08/09 05:50:15;;;;;;;2.38;1.80;;;;;;;;;;5078567;28;20017;-77
2022/08/09 05:52:42;;;;;;;3.65;1.98;;;;;;;;;;5058410;28;20032;-79
2022/08/09 05:55:09;;;;;;;2.72;2.13;;;;;;;;;;5084767;28;20104;-77
2022/08/09 05:57:36;;;;;;;3.25;2.17;;;;;;;;;;5075239;28;20029;-78
2022/08/09 06:00:02;;;;;;;4.63;2.10;;;;;;;;;;5055201;28;20103;-80
2022/08/09 06:02:28;;;;;;;4.28;2.28;;;;;;;;;;5085466;28;20029;-79
2022/08/09 06:04:54;;;;;;;3.30;2.08;;;;;;;;;;5080431;28;20490;-77
2022/08/09 06:07:19;;;;;;;2.95;1.98;;;;;;;;;;5086054;28;20427;-77
2022/08/09 06:09:45;;;;;;;3.10;2.10;;;;;;;;;;5065263;28;20532;-78
2022/08/09 06:12:11;;;;;;;4.35;2.08;;;;;;;;;;5085860;28;20020;-78
2022/08/09 06:14:37;;;;;;;3.42;2.08;;;;;;;;;;5071010;28;20078;-80
2022/08/09 06:17:03;;;;;;;3.38;1.90;;;;;;;;;;5077009;28;20526;-81
2022/08/09 06:19:29;;;;;;;3.13;2.00;;;;;;;;;;5072577;28;20443;-78
2022/08/09 06:21:55;;;;;;;3.60;1.83;;;;;;;;;;5054459;28;20013;-77
2022/08/09 06:24:21;;;;;;;3.15;1.95;;;;;;;;;;5073040;28;20131;-78
2022/08/09 06:26:47;;;;;;;4.35;2.00;;;;;;;;;;5073415;28;20352;-78
2022/08/09 06:29:13;;;;;;;5.05;2.65;;;;;;;;;;5084044;28;20108;-77
2022/08/09 06:31:39;;;;;;;3.05;2.00;;;;;;;;;;5052939;28;20029;-77
2022/08/09 06:34:06;;;;;;;2.55;2.00;;;;;;;;;;5071085;28;20382;-77
2022/08/09 06:36:32;;;;;;;2.63;2.25;;;;;;;;;;5066799;28;20020;-80
2022/08/09 06:38:58;;;;;;;3.53;2.10;;;;;;;;;;5073681;28;20029;-80
2022/08/09 06:41:24;;;;;;;4.93;2.28;;;;;;;;;;5054976;28;20154;-80
2022/08/09 06:43:50;;;;;;;4.82;1.90;;;;;;;;;;5056190;28;20036;-81
2022/08/09 06:46:16;;;;;;;2.97;1.70;;;;;;;;;;5054859;28;20021;-80
2022/08/09 06:48:42;;;;;;;3.97;2.33;;;;;;;;;;5055905;28;20028;-81
2022/08/09 06:51:08;;;;;;;5.82;2.10;;;;;;;;;;5053671;28;20025;-80
2022/08/09 06:53:35;;;;;;;2.20;2.00;;;;;;;;;;5088714;28;20061;-80
2022/08/09 06:56:02;;;;;;;2.70;1.92;;;;;;;;;;5087684;28;20047;-81
2022/08/09 06:58:28;;;;;;;3.35;2.30;;;;;;;;;;5072504;28;20048;-80
2022/08/09 07:00:54;;;;;;;3.53;2.38;;;;;;;;;;5073017;28;20078;-80
2022/08/09 07:03:21;;;;;;;3.92;2.60;;;;;;;;;;5089326;28;20043;-81
2022/08/09 07:05:47;;;;;;;5.85;2.30;;;;;;;;;;5072447;28;20027;-81
2022/08/09 07:08:13;;;;;;;3.47;2.35;;;;;;;;;;5073497;28;20021;-80
2022/08/09 07:10:39;;;;;;;5.50;2.20;;;;;;;;;;5071283;28;20044;-81
2022/08/09 07:13:05;;;;;;;4.93;2.67;;;;;;;;;;5088504;28;20024;-81
2022/08/09 07:15:31;;;;;;;3.88;2.53;;;;;;;;;;5054839;28;20033;-80
2022/08/09 07:17:57;;;;;;;3.72;2.20;;;;;;;;;;5053042;28;20027;-81
2022/08/09 07:20:24;;;;;;;4.72;2.40;;;;;;;;;;5080344;28;20464;-80
2022/08/09 07:22:50;;;;;;;2.67;2.13;;;;;;;;;;5075603;28;20026;-80
2022/08/09 07:25:16;;;;;;;3.55;2.05;;;;;;;;;;5072181;28;20040;-81
2022/08/09 07:27:42;;;;;;;3.38;2.10;;;;;;;;;;5054240;28;20462;-80
2022/08/09 07:30:12;;;;;;;3.30;1.77;;;;;;;;;;5062363;28;20451;-80
2022/08/09 07:32:38;;;;;;;3.75;2.53;;;;;;;;;;5051833;28;20033;-80
2022/08/09 07:35:04;;;;;;;3.38;2.28;;;;;;;;;;5055121;28;20028;-81
2022/08/09 07:37:30;;;;;;;5.10;2.53;;;;;;;;;;5054943;28;20025;-81
2022/08/09 07:39:56;;;;;;;4.90;2.60;;;;;;;;;;5055182;28;20023;-80
2022/08/09 07:42:23;;;;;;;3.75;2.28;;;;;;;;;;5073273;28;20032;-81
2022/08/09 07:44:49;;;;;;;4.20;2.25;;;;;;;;;;5055365;28;20117;-80
2022/08/09 07:47:15;;;;;;;2.10;1.90;;;;;;;;;;5053353;28;20149;-81
2022/08/09 07:49:41;;;;;;;3.50;2.60;;;;;;;;;;5068938;28;20030;-80
2022/08/09 07:52:07;;;;;;;3.40;2.13;;;;;;;;;;5071342;28;20256;-80
2022/08/09 07:54:33;;;;;;;3.75;2.35;;;;;;;;;;5071860;28;20021;-81
2022/08/09 07:56:59;;;;;;;3.70;2.38;;;;;;;;;;5087082;28;20059;-79
2022/08/09 07:59:25;;;;;;;3.38;2.20;;;;;;;;;;5088301;28;20035;-80
2022/08/09 08:01:54;;;;;;;5.68;2.30;;;;;;;;;;5086704;28;20028;-81
2022/08/09 08:04:20;;;;;;;3.03;2.17;;;;;;;;;;5088419;28;20052;-81
2022/08/09 08:06:46;;;;;;;3.38;2.30;;;;;;;;;;5084412;28;20117;-81
2022/08/09 08:09:12;;;;;;;4.43;2.55;;;;;;;;;;5071530;28;20056;-82
2022/08/09 08:11:38;;;;;;;3.65;2.30;;;;;;;;;;5050323;28;20082;-80
2022/08/09 08:14:04;;;;;;;4.07;1.88;;;;;;;;;;5087648;28;20040;-80
2022/08/09 08:16:30;;;;;;;2.88;2.38;;;;;;;;;;5083495;28;20585;-80
2022/08/09 08:18:59;;;;;;;3.30;2.70;;;;;;;;;;5066699;28;20043;-80
2022/08/09 08:21:25;;;;;;;7.18;2.53;;;;;;;;;;5052395;28;20016;-80
2022/08/09 08:23:51;;;;;;;3.45;2.60;;;;;;;;;;5053824;28;20028;-80
2022/08/09 08:26:17;;;;;;;2.78;2.10;;;;;;;;;;5054964;28;20119;-81
2022/08/09 08:28:43;;;;;;;2.83;2.33;;;;;;;;;;5073104;28;20429;-81
2022/08/09 08:31:09;;;;;;;3.95;2.53;;;;;;;;;;5053412;28;20052;-82
2022/08/09 08:33:35;;;;;;;3.30;2.55;;;;;;;;;;5070887;28;20050;-80
2022/08/09 08:36:01;;;;;;;3.10;2.22;;;;;;;;;;5086081;28;20073;-83
2022/08/09 08:38:28;;;;;;;3.42;2.50;;;;;;;;;;5071697;28;20029;-80
2022/08/09 08:40:54;;;;;;;4.53;3.10;;;;;;;;;;5085458;28;20146;-80
2022/08/09 08:43:20;;;;;;;4.05;2.67;;;;;;;;;;5085036;28;20024;-79
2022/08/09 08:45:49;;;;;;;6.40;2.90;;;;;;;;;;5051969;28;20025;-82
2022/08/09 08:48:16;;;;;;;5.25;2.45;;;;;;;;;;5071194;28;20104;-80
2022/08/09 08:50:42;;;;;;;3.25;2.65;;;;;;;;;;5071935;28;20032;-80
2022/08/09 08:53:08;;;;;;;2.85;2.40;;;;;;;;;;5053263;28;20048;-82
2022/08/09 08:55:35;;;;;;;2.55;2.20;;;;;;;;;;5071883;28;20036;-80
2022/08/09 08:58:01;;;;;;;4.32;2.60;;;;;;;;;;5053086;28;20458;-80
2022/08/09 09:00:27;;;;;;;6.15;2.22;;;;;;;;;;5063203;28;20025;-80
2022/08/09 09:02:56;;;;;;;2.58;1.95;;;;;;;;;;5075921;28;20389;-80
2022/08/09 09:05:23;;;;;;;4.50;2.10;;;;;;;;;;5053814;28;20377;-81
2022/08/09 09:07:50;;;;;;;2.13;1.90;;;;;;;;;;5071274;28;20028;-81
2022/08/09 09:10:17;;;;;;;3.20;2.30;;;;;;;;;;5053312;28;20036;-81
2022/08/09 09:12:44;;;;;;;3.97;2.08;;;;;;;;;;5069899;28;20025;-80
2022/08/09 09:15:10;;;;;;;3.22;2.35;;;;;;;;;;5052037;28;20029;-81
2022/08/09 09:17:36;;;;;;;2.38;1.65;;;;;;;;;;5071186;28;20013;-81
2022/08/09 09:20:09;;;;;;;4.50;1.90;;;;;;;;;;5071894;28;20016;-80
2022/08/09 09:22:54;;;;;;;2.53;1.65;;;;;;;;;;5071149;28;20059;-81
2022/08/09 09:25:30;;;;;;;2.58;1.80;;;;;;;;;;5053234;28;20444;-84
2022/08/09 09:27:56;;;;;;;3.42;2.20;;;;;;;;;;5052114;28;20024;-80
2022/08/09 09:30:22;;;;;;;4.60;2.20;;;;;;;;;;5087733;28;20043;-82
2022/08/09 09:33:00;;;;;;;4.25;1.70;;;;;;;;;;5073839;28;20078;-80
2022/08/09 09:35:26;;;;;;;3.00;1.70;;;;;;;;;;5080560;28;20020;-82
2022/08/09 09:37:52;;;;;;;3.00;1.90;;;;;;;;;;5089566;28;20036;-81
2022/08/09 09:40:19;;;;;;;2.63;1.50;;;;;;;;;;5056799;28;20024;-80
2022/08/09 09:42:55;;;;;;;5.35;2.08;;;;;;;;;;5056697;28;20025;-81
2022/08/09 09:45:22;;;;;;;2.75;2.33;;;;;;;;;;5075310;28;20386;-81
2022/08/09 09:47:48;;;;;;;2.72;1.80;;;;;;;;;;5042615;28;20103;-81
2022/08/09 09:50:21;;;;;;;5.40;2.30;;;;;;;;;;5070940;28;20028;-81
2022/08/09 09:52:50;;;;;;;3.08;1.65;;;;;;;;;;5087983;28;20120;-82
2022/08/09 09:55:18;;;;;;;3.38;1.70;;;;;;;;;;5074397;28;20095;-82
2022/08/09 09:57:56;;;;;;;2.30;2.03;;;;;;;;;;5056421;28;20074;-82
2022/08/09 10:00:22;;;;;;;;;;;;;;;;;;5057254;28;20020;-82
2022/08/09 10:02:48;;;;;;;1.70;1.60;;;;;;;;;;5073852;28;19916;-81
2022/08/09 10:05:14;;;;;;;2.55;1.98;;;;;;;;;;5073152;28;20027;-80
2022/08/09 10:07:40;;;;;;;3.42;1.77;;;;;;;;;;5086483;28;20029;-81
2022/08/09 10:10:06;;;;;;;3.05;2.00;;;;;;;;;;5082676;28;20045;-81
2022/08/09 10:12:37;;;;;;;2.92;1.92;;;;;;;;;;5089442;28;20028;-78
2022/08/09 10:15:14;;;;;;;3.20;2.15;;;;;;;;;;5088819;28;20032;-81
2022/08/09 10:17:41;;;;;;;2.80;1.98;;;;;;;;;;5080107;28;20035;-81
2022/08/09 10:20:07;;;;;;;2.83;1.90;;;;;;;;;;5055707;28;20032;-81
2022/08/09 10:22:37;;;;;;;4.72;2.20;;;;;;;;;;5088678;28;20025;-81
2022/08/09 10:25:05;;;;;;;3.90;1.75;;;;;;;;;;5089574;28;20482;-82
2022/08/09 10:27:31;;;;;;;4.65;2.00;;;;;;;;;;5056425;28;20017;-81
2022/08/09 10:29:59;;;;;;;3.28;1.80;;;;;;;;;;5073691;28;20032;-81
2022/08/09 10:32:25;;;;;;;2.05;1.80;;;;;;;;;;5064443;28;20235;-81
2022/08/09 10:34:51;;;;;;;4.05;2.05;;;;;;;;;;5055456;28;20120;-80
2022/08/09 10:37:18;;;;;;;2.40;1.70;;;;;;;;;;5073996;28;20024;-82
2022/08/09 10:39:44;;;;;;;3.65;2.25;;;;;;;;;;5072463;28;20036;-82
2022/08/09 10:42:10;;;;;;;3.15;1.90;;;;;;;;;;5089574;28;20055;-81
2022/08/09 10:44:37;;;;;;;2.78;1.83;;;;;;;;;;5087927;28;20101;-80
2022/08/09 10:47:21;;;;;;;3.40;1.70;;;;;;;;;;5089655;28;20028;-81
2022/08/09 10:49:50;;;;;;;3.67;1.80;;;;;;;;;;5087558;28;20489;-81
2022/08/09 10:52:25;;;;;;;2.75;2.10;;;;;;;;;;5067819;28;20490;-81
2022/08/09 10:54:52;;;;;;;4.10;2.08;;;;;;;;;;5073512;28;20036;-81
2022/08/09 10:57:18;;;;;;;3.05;2.40;;;;;;;;;;5073428;28;20482;-81
2022/08/09 10:59:44;;;;;;;2.90;2.17;;;;;;;;;;5086756;28;20070;-81
2022/08/09 11:02:34;;;;;;;4.50;2.17;;;;;;;;;;5088045;28;20102;-82
2022/08/09 11:05:12;;;;;;;3.10;2.40;;;;;;;;;;5076471;28;20103;-81
2022/08/09 11:07:38;;;;;;;3.47;1.75;;;;;;;;;;5071494;28;20048;-81
2022/08/09 11:10:04;;;;;;;4.95;2.47;;;;;;;;;;5088019;28;20471;-82
2022/08/09 11:12:30;;;;;;;4.10;2.30;;;;;;;;;;5071255;28;20029;-82
2022/08/09 11:15:19;;;;;;;5.07;2.47;;;;;;;;;;5073294;28;20060;-81
2022/08/09 11:17:46;;;;;;;3.78;1.88;;;;;;;;;;5088504;28;20138;-81
2022/08/09 11:20:14;;;;;;;4.22;2.20;;;;;;;;;;5088255;28;20012;-81
2022/08/09 11:22:40;;;;;;;4.07;2.30;;;;;;;;;;5073423;28;20028;-81
2022/08/09 11:25:13;;;;;;;3.97;2.53;;;;;;;;;;5072814;28;20048;-81
2022/08/09 11:27:40;;;;;;;3.13;2.13;;;;;;;;;;5070581;28;20032;-81
2022/08/09 11:30:14;;;;;;;3.65;2.10;;;;;;;;;;5070732;28;20107;-81
2022/08/09 11:32:49;;;;;;;6.47;2.30;;;;;;;;;;5071061;28;20021;-82
2022/08/09 11:35:27;;;;;;;9.32;2.80;;;;;;;;;;5085144;28;20488;-81
2022/08/09 11:37:56;;;;;;;3.13;2.28;;;;;;;;;;5052929;28;20493;-81
2022/08/09 11:40:22;;;;;;;4.35;2.20;;;;;;;;;;5052265;28;20033;-81
2022/08/09 11:42:52;;;;;;;4.85;2.22;;;;;;;;;;5054718;28;20037;-82
2022/08/09 11:45:28;;;;;;;5.40;1.95;;;;;;;;;;5072004;28;20378;-82
2022/08/09 11:47:56;;;;;;;2.78;2.00;;;;;;;;;;5087675;28;20489;-81
2022/08/09 11:50:22;;;;;;;3.72;2.08;;;;;;;;;;5056473;28;20115;-81
2022/08/09 11:53:01;;;;;;;4.38;2.17;;;;;;;;;;5071943;28;20103;-82
2022/08/09 11:55:34;;;;;;;3.78;2.38;;;;;;;;;;5066960;28;20027;-82
2022/08/09 11:58:04;;;;;;;3.05;1.83;;;;;;;;;;5086605;28;20025;-81
2022/08/09 12:00:31;;;;;;;2.10;1.90;;;;;;;;;;5061340;28;20101;-80
2022/08/09 12:02:58;;;;;;;3.22;2.13;;;;;;;;;;5053881;28;20110;-82
2022/08/09 12:05:34;;;;;;;2.67;1.75;;;;;;;;;;5069996;28;20021;-81
2022/08/09 12:08:00;;;;;;;2.45;2.03;;;;;;;;;;5070235;28;20029;-82
2022/08/09 12:10:26;;;;;;;4.75;1.83;;;;;;;;;;5069913;28;20036;-82
2022/08/09 12:12:52;;;;;;;3.97;2.22;;;;;;;;;;5093569;28;20033;-81
2022/08/09 12:15:23;;;;;;;2.40;2.05;;;;;;;;;;5093077;28;20043;-82
2022/08/09 12:17:50;;;;;;;3.42;2.05;;;;;;;;;;5071140;28;20021;-83
2022/08/09 12:20:25;;;;;;;5.30;2.45;;;;;;;;;;5082949;28;20533;-81
2022/08/09 12:22:54;;;;;;;3.95;2.30;;;;;;;;;;5071189;28;20383;-82
2022/08/09 12:25:20;;;;;;;3.95;2.20;;;;;;;;;;5053174;28;20387;-80
2022/08/09 12:27:46;;;;;;;4.00;2.20;;;;;;;;;;5048883;28;20043;-81
2022/08/09 12:30:12;;;;;;;3.88;2.05;;;;;;;;;;5049008;28;20025;-86
2022/08/09 12:32:39;;;;;;;2.90;2.20;;;;;;;;;;5063437;28;20025;-83
2022/08/09 12:35:05;;;;;;;4.32;2.20;;;;;;;;;;5054340;28;20059;-81
2022/08/09 12:37:36;;;;;;;3.58;1.95;;;;;;;;;;5053481;28;20032;-81
2022/08/09 12:40:05;;;;;;;3.75;2.30;;;;;;;;;;5072306;28;20056;-80
2022/08/09 12:42:31;;;;;;;4.75;2.30;;;;;;;;;;5071546;28;20119;-83
2022/08/09 12:44:57;;;;;;;2.92;1.90;;;;;;;;;;5054184;28;20067;-84
2022/08/09 12:47:24;;;;;;;3.28;1.90;;;;;;;;;;5070410;28;20040;-82
2022/08/09 12:52:39;;;;;;;3.05;1.98;;;;;;;;;;5071066;28;20056;-81
2022/08/09 12:55:06;;;;;;;2.60;1.95;;;;;;;;;;5086793;28;20035;-80
2022/08/09 12:57:43;;;;;;;3.42;2.10;;;;;;;;;;5086784;28;20409;-80
2022/08/09 13:00:16;;;;;;;5.80;1.73;;;;;;;;;;5085996;28;20021;-80
2022/08/09 13:02:47;;;;;;;3.65;1.90;;;;;;;;;;5087175;28;20382;-80
2022/08/09 13:05:13;;;;;;;3.42;1.98;;;;;;;;;;5076123;28;20029;-80
2022/08/09 13:07:39;;;;;;;5.20;2.03;;;;;;;;;;5057487;28;20359;-81
2022/08/09 13:10:05;;;;;;;3.67;1.85;;;;;;;;;;5087500;28;20542;-83
2022/08/09 13:12:32;;;;;;;1.90;1.70;;;;;;;;;;5071853;28;20505;-84
2022/08/09 13:15:05;;;;;;;3.65;2.22;;;;;;;;;;5075780;28;20540;-80
2022/08/09 13:17:31;;;;;;;3.58;2.00;;;;;;;;;;5046815;28;20052;-81
2022/08/09 13:19:57;;;;;;;3.13;2.10;;;;;;;;;;5074358;28;20021;-81
2022/08/09 13:22:24;;;;;;;4.63;2.35;;;;;;;;;;5074163;28;20027;-80
2022/08/09 13:24:53;;;;;;;4.60;2.15;;;;;;;;;;5059302;28;20106;-81
2022/08/09 13:27:23;;;;;;;5.47;2.33;;;;;;;;;;5053148;28;20025;-80
2022/08/09 13:30:09;;;;;;;3.35;1.90;;;;;;;;;;5053348;28;20051;-81
2022/08/09 13:32:42;;;;;;;4.18;2.08;;;;;;;;;;5053462;28;20090;-81
2022/08/09 13:35:09;;;;;;;2.17;1.98;;;;;;;;;;5053572;28;20027;-83
2022/08/09 13:37:35;;;;;;;3.05;2.08;;;;;;;;;;5053378;28;20033;-81
2022/08/09 13:40:06;;;;;;;4.55;2.10;;;;;;;;;;5053238;28;20017;-80
2022/08/09 13:42:32;;;;;;;2.22;1.80;;;;;;;;;;5054709;28;20487;-81
2022/08/09 13:44:58;;;;;;;3.08;2.13;;;;;;;;;;5054696;28;20029;-80
2022/08/09 13:47:23;;;;;;;2.72;1.80;;;;;;;;;;5054462;28;20470;-81
2022/08/09 13:49:50;;;;;;;3.33;2.10;;;;;;;;;;5053317;28;20383;-81
2022/08/09 13:52:16;;;;;;;2.40;2.10;;;;;;;;;;5053115;28;20140;-81
2022/08/09 13:54:42;;;;;;;2.63;2.03;;;;;;;;;;5054362;28;20155;-81
2022/08/09 13:57:08;;;;;;;3.92;1.92;;;;;;;;;;5051111;28;20040;-80
2022/08/09 13:59:35;;;;;;;3.30;2.20;;;;;;;;;;5052769;28;20411;-80
2022/08/09 14:02:01;;;;;;;4.20;2.20;;;;;;;;;;5052295;28;20411;-80
2022/08/09 14:04:27;;;;;;;3.15;2.00;;;;;;;;;;5051200;28;20025;-80
2022/08/09 14:07:01;;;;;;;4.15;2.30;;;;;;;;;;5085671;28;20028;-80
2022/08/09 14:09:27;;;;;;;2.67;2.00;;;;;;;;;;5053135;28;20116;-80
2022/08/09 14:11:54;;;;;;;3.47;2.20;;;;;;;;;;5054476;28;20411;-83
2022/08/09 14:14:20;;;;;;;3.65;2.13;;;;;;;;;;5049275;28;20412;-81
2022/08/09 14:16:47;;;;;;;3.47;2.35;;;;;;;;;;5053592;28;20102;-80
2022/08/09 14:19:13;;;;;;;4.32;1.85;;;;;;;;;;5054407;28;20483;-80
2022/08/09 14:21:39;;;;;;;5.88;2.30;;;;;;;;;;5053817;28;20535;-80
2022/08/09 14:24:05;;;;;;;5.03;2.20;;;;;;;;;;5057352;28;20376;-81
2022/08/09 14:26:32;;;;;;;2.42;1.98;;;;;;;;;;5074988;28;20103;-80
2022/08/09 14:29:06;;;;;;;4.85;2.20;;;;;;;;;;5056233;28;20016;-81
2022/08/09 14:31:32;;;;;;;3.15;2.30;;;;;;;;;;5067388;28;20028;-81
2022/08/09 14:33:58;;;;;;;2.85;2.20;;;;;;;;;;5088214;28;20111;-80
2022/08/09 14:36:24;;;;;;;5.20;1.92;;;;;;;;;;5081840;28;20116;-80
2022/08/09 14:38:50;;;;;;;2.75;1.98;;;;;;;;;;5088553;28;20028;-79
2022/08/09 14:41:17;;;;;;;3.33;2.20;;;;;;;;;;5055486;28;20052;-81
2022/08/09 14:43:43;;;;;;;3.67;2.20;;;;;;;;;;5045035;28;20038;-82
2022/08/09 14:46:09;;;;;;;3.50;1.90;;;;;;;;;;5087497;28;20079;-80
2022/08/09 14:48:35;;;;;;;2.92;1.85;;;;;;;;;;5076842;28;20024;-81